Cosco Melbourne — V7IF5 — position and weather

sailwx.info

Track history (hours):
 
Tides and Currents Weather Stations Pressure Air Temp Water Temp Dewpoint Dewpoint Depression Visibility Wind Speed Wind Dir Waves Ship Positions

Cosco Melbourne

Last reported at 2015-May-25 12:28 UTC. Time now 2015-May-25 13:29 UTC.
Position N 01°16' E 103°51'.

Type: Ship (hazmat cat A). MMSI: 538002366.

Date/timePositionNaut miles runAvg speedWind from/ knotsBaromVisibWave heightAir tempDewpointWater temp
2015-May-25 12:28N 01°16' E 103°51'0 0.0
2015-May-25 11:34N 01°16' E 103°51'0 0.0
2015-May-25 10:33N 01°16' E 103°51'0 0.0
2015-May-25 09:24N 01°16' E 103°51'0 0.0
2015-May-25 08:33N 01°16' E 103°51'3 3.4
2015-May-25 07:32N 01°14' E 103°53'  
2015-May-18 08:25N 01°16' E 104°13'1112.2
2015-May-18 07:32N 01°15' E 104°03'1010.6
2015-May-18 06:33N 01°14' E 103°52'3 1.5
2015-May-18 04:31N 01°16' E 103°50'0 0.0
2015-May-18 03:31N 01°16' E 103°50'0 0.0
2015-May-18 02:31N 01°16' E 103°50'0 0.0
2015-May-18 01:31N 01°16' E 103°50'0 0.0
2015-May-17 23:29N 01°16' E 103°50'0 0.0
2015-May-17 22:23N 01°16' E 103°50'0 0.0
2015-May-17 21:28N 01°16' E 103°50'0 0.0
2015-May-17 20:28N 01°16' E 103°50'0 0.0
2015-May-17 19:27N 01°16' E 103°50'0 0.0
2015-May-17 18:33N 01°16' E 103°50'0 0.0
2015-May-17 17:18N 01°16' E 103°50'0 0.0
2015-May-17 16:32N 01°16' E 103°50'0 0.0
2015-May-17 15:26N 01°16' E 103°50'0 0.0
2015-May-17 14:34N 01°16' E 103°50'4 3.3
2015-May-17 13:14N 01°14' E 103°54'4 5.7
2015-May-17 12:33N 01°15' E 103°58'9 8.9
2015-May-17 11:31N 01°17' E 104°07'  
Track history (hours):
 
Tides and Currents Weather Stations Pressure Air Temp Water Temp Dewpoint Dewpoint Depression Visibility Wind Speed Wind Dir Waves Ship Positions

Cosco Melbourne

Last reported at 2015-May-25 12:28 UTC. Time now 2015-May-25 13:29 UTC.
Position N 01°16' E 103°51'.

Type: Ship (hazmat cat A). MMSI: 538002366.

Date/timePositionNaut miles runAvg speedWind from/ knotsBaromVisibWave heightAir tempDewpointWater temp
2015-May-25 12:28N 01°16' E 103°51'0 0.0
2015-May-25 11:34N 01°16' E 103°51'0 0.0
2015-May-25 10:33N 01°16' E 103°51'0 0.0
2015-May-25 09:24N 01°16' E 103°51'0 0.0
2015-May-25 08:33N 01°16' E 103°51'3 3.4
2015-May-25 07:32N 01°14' E 103°53'  
2015-May-18 08:25N 01°16' E 104°13'1112.2
2015-May-18 07:32N 01°15' E 104°03'1010.6
2015-May-18 06:33N 01°14' E 103°52'3 1.5
2015-May-18 04:31N 01°16' E 103°50'0 0.0
2015-May-18 03:31N 01°16' E 103°50'0 0.0
2015-May-18 02:31N 01°16' E 103°50'0 0.0
2015-May-18 01:31N 01°16' E 103°50'0 0.0
2015-May-17 23:29N 01°16' E 103°50'0 0.0
2015-May-17 22:23N 01°16' E 103°50'0 0.0
2015-May-17 21:28N 01°16' E 103°50'0 0.0
2015-May-17 20:28N 01°16' E 103°50'0 0.0
2015-May-17 19:27N 01°16' E 103°50'0 0.0
2015-May-17 18:33N 01°16' E 103°50'0 0.0
2015-May-17 17:18N 01°16' E 103°50'0 0.0
2015-May-17 16:32N 01°16' E 103°50'0 0.0
2015-May-17 15:26N 01°16' E 103°50'0 0.0
2015-May-17 14:34N 01°16' E 103°50'4 3.3
2015-May-17 13:14N 01°14' E 103°54'4 5.7
2015-May-17 12:33N 01°15' E 103°58'9 8.9
2015-May-17 11:31N 01°17' E 104°07'  

Dump ship's entire track history